Data for 12/06/2013

Time Sea-Level Adjusted Pressure Absolute Pressure Temperature Relative Humidity Dew Point   
(mb) (inHg) (mb) (inHg) (C) (F) (%) (C) (F)
00:05 1020 30.12 849 25.07 -23.8 -10.9 81 -26.3 -15.3
00:10 1020 30.12 849 25.07 -23.3 -10 79 -26 -14.8
00:15 1020 30.12 849 25.07 -23.2 -9.8 77 -26.2 -15.2
00:20 1020 30.12 849 25.07 -23.5 -10.3 76 -26.6 -15.9
00:25 1020 30.12 849 25.07 -23.6 -10.5 78 -26.5 -15.6
00:30 1020 30.12 849 25.07 -23.5 -10.3 78 -26.4 -15.5
00:35 1020 30.12 849 25.07 -23.6 -10.5 77 -26.6 -15.9
00:40 1020 30.12 849 25.07 -24.1 -11.3 77 -27.1 -16.7
00:45 1020 30.12 849 25.07 -24.3 -11.7 77 -27.2 -16.9
00:50 1020 30.12 849 25.07 -24.4 -11.9 77 -27.4 -17.3
00:55 1020 30.12 849 25.07 -24.5 -12.2 76 -27.6 -17.6
01:00 1020 30.12 849 25.07 -24.7 -12.5 78 -27.6 -17.6
01:05 1020 30.12 849 25.07 -24.6 -12.3 79 -27.3 -17.2
01:10 1020 30.12 849 25.07 -24.6 -12.2 79 -27.2 -17
01:15 1020 30.12 849 25.07 -24.4 -11.8 78 -27.1 -16.8
01:20 1020 30.12 849 25.07 -24.2 -11.6 76 -27.3 -17.1
01:25 1020 30.12 849 25.07 -24.1 -11.3 75 -27.3 -17.1
01:30 1020 30.12 849 25.07 -24.3 -11.8 76 -27.5 -17.5
01:35 1020 30.12 849 25.07 -24.5 -12.1 76 -27.6 -17.7
01:40 1020 30.12 849 25.07 -24.6 -12.2 78 -27.4 -17.3
01:45 1020 30.12 849 25.07 -24.4 -12 77 -27.3 -17.2
01:50 1020 30.12 849 25.07 -24.3 -11.8 77 -27.2 -17
01:55 1020 30.12 849 25.07 -24.3 -11.7 77 -27.3 -17.1
02:00 1020 30.12 849 25.07 -24.3 -11.7 77 -27.2 -17
02:05 1020 30.12 849 25.07 -24.3 -11.7 77 -27.3 -17.1
02:10 1020 30.12 849 25.07 -24.3 -11.8 77 -27.2 -17
02:15 1020 30.12 849 25.07 -24.1 -11.4 77 -27.1 -16.8
02:20 1020 30.12 849 25.07 -24 -11.1 76 -27 -16.7
02:25 1020 30.12 849 25.07 -24 -11.2 77 -27 -16.7
02:30 1020 30.12 849 25.07 -24 -11.1 77 -27 -16.6
02:35 1020 30.12 849 25.07 -24 -11.1 77 -26.9 -16.5
02:40 1020 30.12 849 25.07 -23.9 -11.1 77 -26.9 -16.5
02:45 1020 30.12 849 25.07 -23.9 -11.1 77 -26.9 -16.5
02:50 1020 30.12 849 25.07 -23.9 -11 77 -26.9 -16.4
02:55 1020 30.12 849 25.07 -23.9 -11 77 -26.9 -16.4
03:00 1020 30.12 849 25.07 -23.9 -11 77 -26.9 -16.3
03:05 1020 30.12 849 25.07 -23.8 -10.9 77 -26.8 -16.2
03:10 1020 30.12 849 25.07 -23.8 -10.8 77 -26.8 -16.2
03:15 1020 30.12 850 25.1 -23.7 -10.6 76 -26.7 -16.1
03:20 1020 30.12 850 25.1 -23.6 -10.5 76 -26.7 -16.1
03:25 1020 30.12 850 25.1 -23.6 -10.5 76 -26.6 -16
03:30 1020 30.12 850 25.1 -23.6 -10.5 76 -26.7 -16
03:35 1020 30.12 850 25.1 -23.6 -10.6 77 -26.7 -16
03:40 1020 30.12 850 25.1 -23.7 -10.6 76 -26.7 -16.1
03:45 1020 30.12 850 25.1 -23.8 -10.9 76 -26.9 -16.4
03:50 1020 30.12 850 25.1 -24.1 -11.3 77 -27 -16.6
03:55 1020 30.12 850 25.1 -24 -11.2 77 -26.9 -16.5
04:00 1021 30.15 850 25.1 -23.9 -11.1 77 -26.9 -16.4
04:05 1021 30.15 850 25.1 -24 -11.1 77 -26.9 -16.4
04:10 1021 30.15 850 25.1 -24 -11.2 79 -26.7 -16.1
04:15 1021 30.15 850 25.1 -23.8 -10.8 79 -26.5 -15.7
04:20 1021 30.15 850 25.1 -23.6 -10.5 79 -26.4 -15.5
04:25 1021 30.15 850 25.1 -23.6 -10.4 79 -26.2 -15.2
04:30 1021 30.15 850 25.1 -23.5 -10.4 79 -26.2 -15.2
04:35 1021 30.15 850 25.1 -23.6 -10.4 79 -26.3 -15.3
04:40 1021 30.15 850 25.1 -23.6 -10.5 79 -26.3 -15.4
04:45 1021 30.15 850 25.1 -23.6 -10.6 79 -26.4 -15.5
04:50 1021 30.15 850 25.1 -23.7 -10.6 79 -26.4 -15.5
04:55 1021 30.15 850 25.1 -23.7 -10.7 78 -26.5 -15.7
05:00 1021 30.15 850 25.1 -23.7 -10.7 79 -26.5 -15.7
05:05 1021 30.15 850 25.1 -23.8 -10.8 79 -26.5 -15.7
05:10 1021 30.15 850 25.1 -23.8 -10.8 79 -26.5 -15.7
05:15 1021 30.15 850 25.1 -23.9 -10.9 79 -26.5 -15.7
05:20 1021 30.15 850 25.1 -23.9 -10.9 79 -26.5 -15.7
05:25 1021 30.15 850 25.1 -23.9 -11 78 -26.8 -16.2
05:30 1021 30.15 850 25.1 -24.1 -11.5 78 -27 -16.6
05:35 1021 30.15 850 25.1 -24.2 -11.6 78 -27 -16.7
05:40 1021 30.15 850 25.1 -24.3 -11.8 78 -27.2 -16.9
05:45 1021 30.15 850 25.1 -24.4 -11.9 78 -27.2 -17
05:50 1021 30.15 850 25.1 -24.4 -12 77 -27.3 -17.2
05:55 1021 30.15 850 25.1 -24.5 -12.2 77 -27.4 -17.4
06:00 1021 30.15 850 25.1 -24.7 -12.4 78 -27.5 -17.4
06:05 1021 30.15 850 25.1 -24.7 -12.5 78 -27.6 -17.6
06:10 1021 30.15 850 25.1 -24.7 -12.5 78 -27.5 -17.5
06:15 1021 30.15 850 25.1 -24.7 -12.4 78 -27.4 -17.4
06:20 1021 30.15 850 25.1 -24.7 -12.5 78 -27.5 -17.6
06:25 1021 30.15 850 25.1 -24.8 -12.6 77 -27.7 -17.9
06:30 1021 30.15 850 25.1 -24.8 -12.7 79 -27.6 -17.6
06:35 1021 30.15 850 25.1 -24.7 -12.5 78 -27.6 -17.6
06:40 1021 30.15 850 25.1 -24.8 -12.7 77 -27.8 -18
06:45 1021 30.15 850 25.1 -25 -13 77 -28 -18.4
06:50 1021 30.15 850 25.1 -25.1 -13.2 76 -28.1 -18.6
06:55 1021 30.15 850 25.1 -25.2 -13.4 75 -28.4 -19.1
07:00 1021 30.15 850 25.1 -25.4 -13.7 76 -28.5 -19.3
07:05 1021 30.15 850 25.1 -25.5 -14 76 -28.7 -19.6
07:10 1021 30.15 850 25.1 -25.6 -14.1 76 -28.8 -19.8
07:15 1021 30.15 850 25.1 -25.9 -14.5 75 -29 -20.2
07:20 1021 30.15 850 25.1 -26 -14.8 74 -29.3 -20.8
07:25 1021 30.15 850 25.1 -26 -14.9 76 -29.2 -20.5
07:30 1021 30.15 850 25.1 -26.1 -14.9 73 -29.5 -21.2
07:35 1021 30.15 850 25.1 -26.4 -15.5 74 -29.8 -21.6
07:40 1021 30.15 850 25.1 -26.5 -15.7 74 -29.8 -21.6
07:45 1021 30.15 850 25.1 -26.5 -15.7 74 -29.8 -21.7
07:50 1021 30.15 850 25.1 -26.6 -15.9 73 -30 -22.1
07:55 1021 30.15 850 25.1 -26.7 -16.1 74 -30.1 -22.1
08:00 1021 30.15 850 25.1 -26.6 -15.9 75 -29.8 -21.7
08:05 1021 30.15 850 25.1 -26.4 -15.6 75 -29.6 -21.3
08:10 1021 30.15 851 25.13 -26.2 -15.2 74 -29.6 -21.2
08:15 1021 30.15 851 25.13 -26.2 -15.1 74 -29.5 -21.2
08:20 1021 30.15 851 25.13 -26.2 -15.2 75 -29.5 -21.1
08:25 1021 30.15 851 25.13 -26.2 -15.2 75 -29.4 -21
08:30 1021 30.15 851 25.13 -26.3 -15.4 73 -29.8 -21.6
08:35 1021 30.15 851 25.13 -26.5 -15.8 75 -29.8 -21.6
08:40 1021 30.15 851 25.13 -26.7 -16 75 -29.9 -21.9
08:45 1022 30.18 851 25.13 -26.7 -16.1 74 -30 -22
08:50 1022 30.18 851 25.13 -26.7 -16.1 75 -30 -21.9
08:55 1022 30.18 851 25.13 -26.7 -16.1 74 -30 -22.1
09:00 1022 30.18 851 25.13 -26.7 -16 75 -29.9 -21.9
09:05 1022 30.18 851 25.13 -26.6 -15.9 76 -29.6 -21.3
09:10 1022 30.18 851 25.13 -26.4 -15.5 76 -29.4 -21
09:15 1022 30.18 851 25.13 -26.3 -15.3 74 -29.6 -21.4
09:20 1022 30.18 851 25.13 -26.4 -15.5 73 -29.8 -21.7
09:25 1022 30.18 851 25.13 -26.7 -16 73 -30.2 -22.3
09:30 1022 30.18 851 25.13 -26.7 -16.1 72 -30.3 -22.5
09:35 1022 30.18 851 25.13 -26.6 -15.8 71 -30.3 -22.5
09:40 1022 30.18 851 25.13 -26.6 -15.8 72 -30.2 -22.4
09:45 1022 30.18 851 25.13 -26.4 -15.6 71 -30.2 -22.4
09:50 1022 30.18 851 25.13 -26.5 -15.8 71 -30.3 -22.5
09:55 1022 30.18 851 25.13 -26.6 -15.8 73 -30.1 -22.2
10:00 1022 30.18 851 25.13 -26.3 -15.3 73 -29.7 -21.5
10:05 1022 30.18 851 25.13 -25.8 -14.5 73 -29.3 -20.8
10:10 1022 30.18 851 25.13 -25.5 -13.8 73 -29 -20.1
10:15 1022 30.18 851 25.13 -25.2 -13.4 73 -28.8 -19.8
10:20 1022 30.18 851 25.13 -24.9 -12.8 72 -28.5 -19.4
10:25 1022 30.18 851 25.13 -24.6 -12.2 72 -28.3 -18.9
10:30 1022 30.18 851 25.13 -24.3 -11.8 72 -28 -18.4
10:35 1022 30.18 851 25.13 -24.3 -11.7 70 -28.2 -18.8
10:40 1022 30.18 851 25.13 -24.2 -11.5 72 -27.8 -18.1
10:45 1022 30.18 851 25.13 -23.7 -10.7 69 -27.8 -18.1
10:50 1022 30.18 851 25.13 -23.5 -10.3 69 -27.6 -17.7
10:55 1022 30.18 852 25.16 -23.3 -9.9 65 -28.1 -18.5
11:00 1022 30.18 852 25.16 -23.6 -10.4 65 -28.5 -19.2
11:05 1022 30.18 852 25.16 -23.8 -10.8 64 -28.7 -19.7
11:10 1022 30.18 852 25.16 -23.9 -11.1 66 -28.5 -19.4
11:15 1022 30.18 852 25.16 -24 -11.3 67 -28.6 -19.5
11:20 1022 30.18 852 25.16 -24.1 -11.4 67 -28.6 -19.5
11:25 1022 30.18 852 25.16 -24.1 -11.4 67 -28.6 -19.4
11:30 1023 30.21 852 25.16 -24.4 -12 70 -28.5 -19.2
11:35 1023 30.21 852 25.16 -24.3 -11.7 69 -28.4 -19.2
11:40 1023 30.21 852 25.16 -24 -11.2 70 -28.1 -18.6
11:45 1023 30.21 852 25.16 -23.8 -10.9 69 -28 -18.4
11:50 1023 30.21 852 25.16 -23.6 -10.5 69 -27.8 -18
11:55 1022 30.18 852 25.16 -23.6 -10.5 69 -27.7 -17.9
12:00 1022 30.18 852 25.16 -23.4 -10.1 69 -27.6 -17.8
12:05 1022 30.18 852 25.16 -23.4 -10 69 -27.5 -17.5
12:10 1022 30.18 852 25.16 -23.2 -9.7 67 -27.6 -17.8
12:15 1022 30.18 851 25.13 -23.2 -9.7 68 -27.5 -17.6
12:20 1022 30.18 851 25.13 -23.2 -9.7 67 -27.7 -17.9
12:25 1022 30.18 851 25.13 -23.3 -9.9 67 -27.7 -17.9
12:30 1022 30.18 851 25.13 -23.6 -10.5 68 -28 -18.4
12:35 1022 30.18 851 25.13 -23.6 -10.4 69 -27.7 -17.9
12:40 1022 30.18 851 25.13 -23.1 -9.6 68 -27.5 -17.5
12:45 1022 30.18 851 25.13 -22.8 -9 68 -27.2 -17
12:50 1022 30.18 851 25.13 -22.7 -8.9 66 -27.4 -17.3
12:55 1022 30.18 851 25.13 -22.4 -8.3 66 -27.1 -16.8
13:00 1022 30.18 851 25.13 -21.9 -7.4 64 -27 -16.7
13:05 1022 30.18 851 25.13 -21.7 -7.1 64 -26.9 -16.4
13:10 1022 30.18 851 25.13 -21.7 -7 62 -27.1 -16.8
13:15 1022 30.18 851 25.13 -21.7 -7.1 64 -26.8 -16.2
13:20 1022 30.18 851 25.13 -21.5 -6.8 65 -26.5 -15.7
13:25 1022 30.18 851 25.13 -21.5 -6.8 62 -27 -16.6
13:30 1022 30.18 851 25.13 -22 -7.6 65 -27 -16.6
13:35 1022 30.18 851 25.13 -21.8 -7.2 64 -26.9 -16.4
13:40 1022 30.18 851 25.13 -21.6 -6.9 65 -26.6 -15.9
13:45 1022 30.18 851 25.13 -21.5 -6.6 62 -26.9 -16.3
13:50 1022 30.18 851 25.13 -21.4 -6.4 62 -26.8 -16.2
13:55 1021 30.15 851 25.13 -21.5 -6.7 66 -26.2 -15.1
14:00 1021 30.15 851 25.13 -21.2 -6.2 63 -26.6 -15.8
14:05 1021 30.15 851 25.13 -21.4 -6.4 65 -26.3 -15.4
14:10 1021 30.15 851 25.13 -21.1 -6 62 -26.6 -15.8
14:15 1021 30.15 851 25.13 -21.3 -6.4 65 -26.3 -15.4
14:20 1021 30.15 851 25.13 -21.3 -6.4 63 -26.6 -15.9
14:25 1021 30.15 850 25.1 -21.1 -6 64 -26.3 -15.3
14:30 1021 30.15 850 25.1 -20.9 -5.7 62 -26.5 -15.7
14:35 1021 30.15 850 25.1 -21.5 -6.7 64 -26.6 -15.8
14:40 1021 30.15 850 25.1 -21.1 -5.9 63 -26.3 -15.4
14:45 1021 30.15 850 25.1 -21.1 -5.9 64 -26.2 -15.2
14:50 1021 30.15 850 25.1 -21.1 -6 64 -26.3 -15.4
14:55 1021 30.15 850 25.1 -21.5 -6.6 63 -26.8 -16.2
15:00 1021 30.15 850 25.1 -21.6 -7 64 -26.8 -16.2
15:05 1021 30.15 850 25.1 -21.6 -7 64 -26.8 -16.2
15:10 1021 30.15 850 25.1 -21.7 -7.1 65 -26.7 -16
15:15 1021 30.15 850 25.1 -21.2 -6.2 63 -26.4 -15.6
15:20 1021 30.15 850 25.1 -20.9 -5.6 62 -26.4 -15.5
15:25 1021 30.15 850 25.1 -21 -5.8 62 -26.5 -15.7
15:30 1021 30.15 850 25.1 -21.2 -6.1 63 -26.6 -15.8
15:35 1021 30.15 850 25.1 -21.1 -5.9 61 -26.8 -16.3
15:40 1021 30.15 850 25.1 -21.6 -6.9 64 -26.8 -16.2
15:45 1021 30.15 850 25.1 -21.9 -7.4 64 -27 -16.6
15:50 1021 30.15 850 25.1 -22.5 -8.4 66 -27.1 -16.8
15:55 1021 30.15 850 25.1 -22.7 -8.8 66 -27.4 -17.3
16:00 1021 30.15 850 25.1 -23 -9.5 69 -27.3 -17.1
16:05 1021 30.15 850 25.1 -22.9 -9.1 68 -27.2 -17
16:10 1021 30.15 850 25.1 -22.7 -8.8 67 -27.2 -17
16:15 1021 30.15 850 25.1 -22.6 -8.6 67 -27.1 -16.8
16:20 1021 30.15 850 25.1 -22.6 -8.6 67 -27.1 -16.8
16:25 1021 30.15 850 25.1 -22.8 -9 67 -27.4 -17.3
16:30 1021 30.15 850 25.1 -23 -9.5 67 -27.6 -17.6
16:35 1021 30.15 850 25.1 -23.4 -10.1 70 -27.4 -17.4
16:40 1021 30.15 850 25.1 -23.4 -10.1 70 -27.4 -17.4
16:45 1021 30.15 850 25.1 -23.4 -10.1 69 -27.6 -17.8
16:50 1021 30.15 850 25.1 -23.5 -10.2 70 -27.5 -17.6
16:55 1021 30.15 850 25.1 -23.5 -10.4 70 -27.6 -17.7
17:00 1021 30.15 850 25.1 -23.8 -10.8 70 -27.7 -17.9
17:05 1021 30.15 850 25.1 -24 -11.2 72 -27.7 -17.9
17:10 1021 30.15 850 25.1 -24 -11.3 72 -27.8 -18.1
17:15 1021 30.15 850 25.1 -24 -11.2 72 -27.8 -18
17:20 1021 30.15 850 25.1 -24 -11.2 72 -27.8 -18
17:25 1021 30.15 850 25.1 -24 -11.2 72 -27.7 -17.8
17:30 1021 30.15 850 25.1 -24 -11.2 72 -27.7 -17.8
17:35 1021 30.15 850 25.1 -24 -11.1 73 -27.6 -17.6
17:40 1021 30.15 850 25.1 -23.9 -11.1 72 -27.6 -17.7
17:45 1021 30.15 850 25.1 -24.1 -11.4 73 -27.6 -17.7
17:50 1021 30.15 850 25.1 -24.2 -11.5 72 -27.9 -18.2
17:55 1021 30.15 850 25.1 -24.4 -11.8 73 -28 -18.3
18:00 1021 30.15 850 25.1 -24.4 -11.9 73 -27.9 -18.2
18:05 1021 30.15 850 25.1 -24.3 -11.8 73 -27.9 -18.1
18:10 1021 30.15 850 25.1 -24.4 -11.9 72 -28 -18.5
18:15 1021 30.15 850 25.1 -24.6 -12.2 72 -28.2 -18.8
18:20 1021 30.15 850 25.1 -24.7 -12.4 72 -28.3 -18.9
18:25 1021 30.15 850 25.1 -24.8 -12.6 69 -28.9 -20.1
18:30 1021 30.15 850 25.1 -25 -13.1 73 -28.6 -19.5
18:35 1021 30.15 850 25.1 -25 -13 72 -28.8 -19.8
18:40 1021 30.15 850 25.1 -25.1 -13.1 71 -29 -20.1
18:45 1021 30.15 850 25.1 -25.1 -13.1 69 -29.1 -20.4
18:50 1021 30.15 850 25.1 -25 -12.9 70 -29 -20.2
18:55 1021 30.15 850 25.1 -24.9 -12.8 71 -28.8 -19.8
19:00 1021 30.15 850 25.1 -24.8 -12.7 70 -28.9 -20
19:05 1021 30.15 850 25.1 -24.9 -12.8 71 -28.7 -19.6
19:10 1021 30.15 850 25.1 -24.8 -12.7 71 -28.7 -19.7
19:15 1021 30.15 850 25.1 -24.9 -12.7 71 -28.7 -19.7
19:20 1021 30.15 850 25.1 -24.9 -12.7 71 -28.8 -19.8
19:25 1021 30.15 850 25.1 -24.9 -12.8 70 -28.9 -19.9
19:30 1021 30.15 850 25.1 -24.9 -12.8 69 -29 -20.3
19:35 1021 30.15 850 25.1 -25 -13 68 -29.3 -20.8
19:40 1021 30.15 850 25.1 -25.1 -13.1 68 -29.4 -20.9
19:45 1021 30.15 850 25.1 -25.1 -13.2 68 -29.4 -20.9
19:50 1021 30.15 850 25.1 -25.2 -13.3 68 -29.5 -21.1
19:55 1021 30.15 850 25.1 -25.3 -13.5 69 -29.5 -21
20:00 1021 30.15 850 25.1 -25.2 -13.3 68 -29.4 -20.9
20:05 1021 30.15 850 25.1 -25.1 -13.3 69 -29.4 -20.8
20:10 1021 30.15 850 25.1 -25.1 -13.3 69 -29.3 -20.8
20:15 1021 30.15 850 25.1 -25.2 -13.3 68 -29.4 -21
20:20 1021 30.15 850 25.1 -25.3 -13.5 69 -29.5 -21
20:25 1021 30.15 850 25.1 -25.3 -13.5 69 -29.4 -21
20:30 1021 30.15 850 25.1 -25.3 -13.5 70 -29.3 -20.8
20:35 1021 30.15 850 25.1 -25.3 -13.6 70 -29.4 -20.8
20:40 1021 30.15 850 25.1 -25.4 -13.6 70 -29.4 -20.9
20:45 1021 30.15 850 25.1 -25.4 -13.6 69 -29.5 -21.1
20:50 1021 30.15 850 25.1 -25.3 -13.6 69 -29.4 -20.9
20:55 1021 30.15 850 25.1 -25.4 -13.6 69 -29.4 -21
21:00 1021 30.15 850 25.1 -25.3 -13.6 68 -29.6 -21.3
21:05 1021 30.15 850 25.1 -25.3 -13.6 68 -29.6 -21.4
21:10 1021 30.15 850 25.1 -25.3 -13.6 68 -29.6 -21.4
21:15 1021 30.15 850 25.1 -25.3 -13.6 68 -29.6 -21.4
21:20 1021 30.15 850 25.1 -25.3 -13.6 68 -29.7 -21.4
21:25 1021 30.15 850 25.1 -25.3 -13.6 68 -29.7 -21.4
21:30 1021 30.15 850 25.1 -25.4 -13.6 68 -29.7 -21.5
21:35 1021 30.15 850 25.1 -25.4 -13.8 66 -30 -22
21:40 1021 30.15 850 25.1 -25.4 -13.7 67 -29.9 -21.7
21:45 1021 30.15 850 25.1 -25.4 -13.7 67 -29.9 -21.8
21:50 1021 30.15 850 25.1 -25.4 -13.6 68 -29.6 -21.3
21:55 1021 30.15 850 25.1 -25.3 -13.6 67 -29.7 -21.5
22:00 1021 30.15 850 25.1 -25.4 -13.7 67 -29.9 -21.8
22:05 1021 30.15 850 25.1 -25.4 -13.7 67 -29.8 -21.6
22:10 1021 30.15 850 25.1 -25.4 -13.6 68 -29.6 -21.3
22:15 1021 30.15 850 25.1 -25.3 -13.6 67 -29.8 -21.7
22:20 1021 30.15 850 25.1 -25.4 -13.7 68 -29.6 -21.4
22:25 1021 30.15 850 25.1 -25.3 -13.6 69 -29.4 -20.9
22:30 1021 30.15 850 25.1 -25.3 -13.6 67 -29.8 -21.7
22:35 1021 30.15 850 25.1 -25.4 -13.7 68 -29.7 -21.5
22:40 1021 30.15 850 25.1 -25.4 -13.7 68 -29.7 -21.5
22:45 1021 30.15 850 25.1 -25.4 -13.7 68 -29.7 -21.5
22:50 1021 30.15 850 25.1 -25.4 -13.7 67 -29.8 -21.6
22:55 1021 30.15 850 25.1 -25.4 -13.7 67 -29.8 -21.6
23:00 1021 30.15 850 25.1 -25.5 -13.8 67 -30 -21.9
23:05 1021 30.15 850 25.1 -25.5 -13.9 66 -30.2 -22.3
23:10 1021 30.15 850 25.1 -25.5 -13.9 65 -30.2 -22.4
23:15 1021 30.15 850 25.1 -25.5 -13.8 66 -30.1 -22.2
23:20 1021 30.15 850 25.1 -25.4 -13.7 65 -30.3 -22.5
23:25 1021 30.15 850 25.1 -25.4 -13.7 63 -30.5 -22.9
23:30 1021 30.15 850 25.1 -25.4 -13.7 64 -30.3 -22.6
23:35 1021 30.15 850 25.1 -25.4 -13.7 64 -30.4 -22.7
23:40 1021 30.15 850 25.1 -25.4 -13.7 64 -30.3 -22.6
23:45 1021 30.15 850 25.1 -25.5 -13.9 65 -30.3 -22.5
23:50 1021 30.15 850 25.1 -25.5 -13.9 65 -30.3 -22.6
23:55 1021 30.15 850 25.1 -25.5 -13.9 64 -30.4 -22.8
24:00 1021 30.15 850 25.1 -25.5 -13.9 65 -30.2 -22.4